sensor_id;sensor_type;location;lat;lon;timestamp;P1;durP1;ratioP1;P2;durP2;ratioP2
15482;SDS011;7843;50.330;7.312;2023-02-28T00:00:49;0.90;;;0.80;;
15482;SDS011;7843;50.330;7.312;2023-02-28T00:03:16;6.23;;;1.50;;
15482;SDS011;7843;50.330;7.312;2023-02-28T00:05:42;2.03;;;1.20;;
15482;SDS011;7843;50.330;7.312;2023-02-28T00:08:09;2.45;;;1.00;;
15482;SDS011;7843;50.330;7.312;2023-02-28T00:10:36;2.83;;;1.30;;
15482;SDS011;7843;50.330;7.312;2023-02-28T00:13:04;3.47;;;1.30;;
15482;SDS011;7843;50.330;7.312;2023-02-28T00:15:32;2.77;;;1.63;;
15482;SDS011;7843;50.330;7.312;2023-02-28T00:17:59;2.00;;;1.08;;
15482;SDS011;7843;50.330;7.312;2023-02-28T00:20:27;1.98;;;1.10;;
15482;SDS011;7843;50.330;7.312;2023-02-28T00:22:54;3.10;;;1.40;;
15482;SDS011;7843;50.330;7.312;2023-02-28T00:25:22;2.90;;;1.17;;
15482;SDS011;7843;50.330;7.312;2023-02-28T00:27:50;2.47;;;1.45;;
15482;SDS011;7843;50.330;7.312;2023-02-28T00:30:18;1.70;;;1.05;;
15482;SDS011;7843;50.330;7.312;2023-02-28T00:32:46;3.08;;;1.33;;
15482;SDS011;7843;50.330;7.312;2023-02-28T00:35:14;2.63;;;1.10;;
15482;SDS011;7843;50.330;7.312;2023-02-28T00:37:41;4.93;;;1.02;;
15482;SDS011;7843;50.330;7.312;2023-02-28T00:40:10;3.47;;;1.30;;
15482;SDS011;7843;50.330;7.312;2023-02-28T00:42:38;2.35;;;1.42;;
15482;SDS011;7843;50.330;7.312;2023-02-28T00:45:05;3.20;;;1.13;;
15482;SDS011;7843;50.330;7.312;2023-02-28T00:47:34;1.95;;;1.17;;
15482;SDS011;7843;50.330;7.312;2023-02-28T00:50:00;3.38;;;1.60;;
15482;SDS011;7843;50.330;7.312;2023-02-28T00:52:27;2.47;;;1.50;;
15482;SDS011;7843;50.330;7.312;2023-02-28T00:54:54;2.28;;;1.50;;
15482;SDS011;7843;50.330;7.312;2023-02-28T00:57:20;2.28;;;1.40;;
15482;SDS011;7843;50.330;7.312;2023-02-28T00:59:47;1.98;;;1.50;;
15482;SDS011;7843;50.330;7.312;2023-02-28T01:02:14;3.17;;;1.35;;
15482;SDS011;7843;50.330;7.312;2023-02-28T01:04:40;1.75;;;1.45;;
15482;SDS011;7843;50.330;7.312;2023-02-28T01:07:07;1.60;;;1.05;;
15482;SDS011;7843;50.330;7.312;2023-02-28T01:09:34;2.15;;;1.50;;
15482;SDS011;7843;50.330;7.312;2023-02-28T01:12:00;1.90;;;1.50;;
15482;SDS011;7843;50.330;7.312;2023-02-28T01:14:27;1.67;;;1.48;;
15482;SDS011;7843;50.330;7.312;2023-02-28T01:16:54;2.33;;;1.42;;
15482;SDS011;7843;50.330;7.312;2023-02-28T01:19:20;3.80;;;1.52;;
15482;SDS011;7843;50.330;7.312;2023-02-28T01:21:47;2.25;;;1.55;;
15482;SDS011;7843;50.330;7.312;2023-02-28T01:24:14;4.07;;;1.80;;
15482;SDS011;7843;50.330;7.312;2023-02-28T01:26:40;2.17;;;1.73;;
15482;SDS011;7843;50.330;7.312;2023-02-28T01:29:07;2.55;;;1.52;;
15482;SDS011;7843;50.330;7.312;2023-02-28T01:31:34;3.65;;;2.00;;
15482;SDS011;7843;50.330;7.312;2023-02-28T01:34:01;2.83;;;1.58;;
15482;SDS011;7843;50.330;7.312;2023-02-28T01:36:28;3.10;;;1.67;;
15482;SDS011;7843;50.330;7.312;2023-02-28T01:38:55;3.80;;;1.50;;
15482;SDS011;7843;50.330;7.312;2023-02-28T01:41:23;2.00;;;1.35;;
15482;SDS011;7843;50.330;7.312;2023-02-28T01:46:30;2.17;;;1.60;;
15482;SDS011;7843;50.330;7.312;2023-02-28T01:51:37;2.92;;;1.70;;
15482;SDS011;7843;50.330;7.312;2023-02-28T01:54:12;2.60;;;1.67;;
15482;SDS011;7843;50.330;7.312;2023-02-28T01:56:46;5.68;;;2.20;;
15482;SDS011;7843;50.330;7.312;2023-02-28T01:59:21;2.13;;;1.70;;
15482;SDS011;7843;50.330;7.312;2023-02-28T02:01:55;1.63;;;1.30;;
15482;SDS011;7843;50.330;7.312;2023-02-28T02:04:23;1.90;;;1.30;;
15482;SDS011;7843;50.330;7.312;2023-02-28T02:06:56;2.88;;;1.70;;
15482;SDS011;7843;50.330;7.312;2023-02-28T02:09:25;3.72;;;1.50;;
15482;SDS011;7843;50.330;7.312;2023-02-28T02:11:51;2.42;;;1.70;;
15482;SDS011;7843;50.330;7.312;2023-02-28T02:14:32;2.47;;;1.85;;
15482;SDS011;7843;50.330;7.312;2023-02-28T02:17:12;4.53;;;1.80;;
15482;SDS011;7843;50.330;7.312;2023-02-28T02:23:06;2.50;;;1.60;;
15482;SDS011;7843;50.330;7.312;2023-02-28T02:26:01;2.05;;;1.45;;
15482;SDS011;7843;50.330;7.312;2023-02-28T02:42:31;2.50;;;1.77;;
15482;SDS011;7843;50.330;7.312;2023-02-28T02:45:16;2.80;;;2.00;;
15482;SDS011;7843;50.330;7.312;2023-02-28T02:48:08;2.53;;;1.90;;
15482;SDS011;7843;50.330;7.312;2023-02-28T02:50:41;3.13;;;1.65;;
15482;SDS011;7843;50.330;7.312;2023-02-28T02:53:10;5.60;;;1.85;;
15482;SDS011;7843;50.330;7.312;2023-02-28T02:55:41;6.82;;;1.80;;
15482;SDS011;7843;50.330;7.312;2023-02-28T02:58:12;2.35;;;1.88;;
15482;SDS011;7843;50.330;7.312;2023-02-28T03:00:43;6.70;;;2.03;;
15482;SDS011;7843;50.330;7.312;2023-02-28T03:03:14;2.28;;;1.50;;
15482;SDS011;7843;50.330;7.312;2023-02-28T03:05:50;3.17;;;2.00;;
15482;SDS011;7843;50.330;7.312;2023-02-28T03:08:17;3.60;;;2.13;;
15482;SDS011;7843;50.330;7.312;2023-02-28T03:10:45;3.05;;;1.90;;
15482;SDS011;7843;50.330;7.312;2023-02-28T03:13:35;2.55;;;1.88;;
15482;SDS011;7843;50.330;7.312;2023-02-28T03:21:28;2.85;;;2.17;;
15482;SDS011;7843;50.330;7.312;2023-02-28T03:25:01;3.83;;;1.63;;
15482;SDS011;7843;50.330;7.312;2023-02-28T03:30:06;2.27;;;1.63;;
15482;SDS011;7843;50.330;7.312;2023-02-28T03:32:49;2.10;;;1.60;;
15482;SDS011;7843;50.330;7.312;2023-02-28T03:35:23;2.40;;;1.85;;
15482;SDS011;7843;50.330;7.312;2023-02-28T03:38:00;2.85;;;1.70;;
15482;SDS011;7843;50.330;7.312;2023-02-28T03:40:59;2.70;;;1.60;;
15482;SDS011;7843;50.330;7.312;2023-02-28T03:43:33;2.40;;;1.70;;
15482;SDS011;7843;50.330;7.312;2023-02-28T03:46:05;2.75;;;1.58;;
15482;SDS011;7843;50.330;7.312;2023-02-28T03:48:45;2.00;;;1.60;;
15482;SDS011;7843;50.330;7.312;2023-02-28T03:51:17;5.47;;;1.98;;
15482;SDS011;7843;50.330;7.312;2023-02-28T03:53:50;3.40;;;1.55;;
15482;SDS011;7843;50.330;7.312;2023-02-28T04:02:05;1.48;;;1.27;;
15482;SDS011;7843;50.330;7.312;2023-02-28T04:04:33;3.00;;;1.42;;
15482;SDS011;7843;50.330;7.312;2023-02-28T04:07:02;2.57;;;1.70;;
15482;SDS011;7843;50.330;7.312;2023-02-28T04:09:37;1.88;;;1.55;;
15482;SDS011;7843;50.330;7.312;2023-02-28T04:12:04;1.50;;;1.20;;
15482;SDS011;7843;50.330;7.312;2023-02-28T04:14:31;1.80;;;1.40;;
15482;SDS011;7843;50.330;7.312;2023-02-28T04:16:57;3.35;;;1.60;;
15482;SDS011;7843;50.330;7.312;2023-02-28T04:19:24;2.22;;;1.70;;
15482;SDS011;7843;50.330;7.312;2023-02-28T04:21:51;1.60;;;1.50;;
15482;SDS011;7843;50.330;7.312;2023-02-28T04:24:20;4.00;;;1.60;;
15482;SDS011;7843;50.330;7.312;2023-02-28T04:26:52;4.47;;;1.67;;
15482;SDS011;7843;50.330;7.312;2023-02-28T04:29:21;1.60;;;1.35;;
15482;SDS011;7843;50.330;7.312;2023-02-28T04:31:55;2.33;;;1.40;;
15482;SDS011;7843;50.330;7.312;2023-02-28T04:34:26;1.70;;;1.48;;
15482;SDS011;7843;50.330;7.312;2023-02-28T04:36:54;2.67;;;1.60;;
15482;SDS011;7843;50.330;7.312;2023-02-28T04:39:37;4.22;;;1.60;;
15482;SDS011;7843;50.330;7.312;2023-02-28T04:42:04;1.73;;;1.20;;
15482;SDS011;7843;50.330;7.312;2023-02-28T04:44:31;1.60;;;1.40;;
15482;SDS011;7843;50.330;7.312;2023-02-28T04:46:58;8.13;;;1.63;;
15482;SDS011;7843;50.330;7.312;2023-02-28T04:49:25;2.13;;;1.20;;
15482;SDS011;7843;50.330;7.312;2023-02-28T04:51:51;2.80;;;1.35;;
15482;SDS011;7843;50.330;7.312;2023-02-28T04:54:19;2.20;;;1.45;;
15482;SDS011;7843;50.330;7.312;2023-02-28T04:56:46;2.70;;;1.73;;
15482;SDS011;7843;50.330;7.312;2023-02-28T04:59:14;2.25;;;1.77;;
15482;SDS011;7843;50.330;7.312;2023-02-28T05:01:45;2.28;;;1.40;;
15482;SDS011;7843;50.330;7.312;2023-02-28T05:04:13;3.17;;;1.67;;
15482;SDS011;7843;50.330;7.312;2023-02-28T05:06:39;2.85;;;1.92;;
15482;SDS011;7843;50.330;7.312;2023-02-28T05:09:06;4.93;;;1.77;;
15482;SDS011;7843;50.330;7.312;2023-02-28T05:11:33;2.75;;;1.73;;
15482;SDS011;7843;50.330;7.312;2023-02-28T05:14:02;1.88;;;1.67;;
15482;SDS011;7843;50.330;7.312;2023-02-28T05:16:31;3.72;;;1.88;;
15482;SDS011;7843;50.330;7.312;2023-02-28T05:18:58;2.28;;;1.52;;
15482;SDS011;7843;50.330;7.312;2023-02-28T05:23:54;3.10;;;1.73;;
15482;SDS011;7843;50.330;7.312;2023-02-28T05:26:22;2.05;;;1.67;;
15482;SDS011;7843;50.330;7.312;2023-02-28T05:28:49;4.50;;;2.20;;
15482;SDS011;7843;50.330;7.312;2023-02-28T05:31:16;4.68;;;2.50;;
15482;SDS011;7843;50.330;7.312;2023-02-28T05:33:42;4.28;;;2.70;;
15482;SDS011;7843;50.330;7.312;2023-02-28T05:36:09;5.57;;;3.00;;
15482;SDS011;7843;50.330;7.312;2023-02-28T05:38:36;9.30;;;4.18;;
15482;SDS011;7843;50.330;7.312;2023-02-28T05:41:07;11.05;;;3.92;;
15482;SDS011;7843;50.330;7.312;2023-02-28T05:43:35;8.57;;;4.50;;
15482;SDS011;7843;50.330;7.312;2023-02-28T05:46:03;9.07;;;4.72;;
15482;SDS011;7843;50.330;7.312;2023-02-28T05:48:32;15.13;;;6.67;;
15482;SDS011;7843;50.330;7.312;2023-02-28T05:51:02;15.27;;;6.18;;
15482;SDS011;7843;50.330;7.312;2023-02-28T05:53:30;5.72;;;2.85;;
15482;SDS011;7843;50.330;7.312;2023-02-28T05:55:57;3.58;;;2.40;;
15482;SDS011;7843;50.330;7.312;2023-02-28T05:58:25;4.47;;;2.88;;
15482;SDS011;7843;50.330;7.312;2023-02-28T06:00:55;3.90;;;2.72;;
15482;SDS011;7843;50.330;7.312;2023-02-28T06:03:22;3.47;;;2.10;;
15482;SDS011;7843;50.330;7.312;2023-02-28T06:05:49;5.30;;;1.95;;
15482;SDS011;7843;50.330;7.312;2023-02-28T06:08:16;3.42;;;2.00;;
15482;SDS011;7843;50.330;7.312;2023-02-28T06:10:43;2.05;;;1.85;;
15482;SDS011;7843;50.330;7.312;2023-02-28T06:13:09;3.10;;;1.87;;
15482;SDS011;7843;50.330;7.312;2023-02-28T06:15:37;2.13;;;1.80;;
15482;SDS011;7843;50.330;7.312;2023-02-28T06:18:04;3.45;;;1.98;;
15482;SDS011;7843;50.330;7.312;2023-02-28T06:20:31;3.17;;;2.13;;
15482;SDS011;7843;50.330;7.312;2023-02-28T06:22:58;2.75;;;2.00;;
15482;SDS011;7843;50.330;7.312;2023-02-28T06:25:25;3.67;;;2.10;;
15482;SDS011;7843;50.330;7.312;2023-02-28T06:27:53;7.10;;;2.30;;
15482;SDS011;7843;50.330;7.312;2023-02-28T06:30:20;2.60;;;2.10;;
15482;SDS011;7843;50.330;7.312;2023-02-28T06:32:53;2.47;;;1.83;;
15482;SDS011;7843;50.330;7.312;2023-02-28T06:35:20;2.60;;;2.00;;
15482;SDS011;7843;50.330;7.312;2023-02-28T06:37:47;2.15;;;1.85;;
15482;SDS011;7843;50.330;7.312;2023-02-28T06:40:14;5.38;;;2.60;;
15482;SDS011;7843;50.330;7.312;2023-02-28T06:42:41;4.20;;;2.50;;
15482;SDS011;7843;50.330;7.312;2023-02-28T06:45:08;5.90;;;2.63;;
15482;SDS011;7843;50.330;7.312;2023-02-28T06:47:37;2.85;;;2.22;;
15482;SDS011;7843;50.330;7.312;2023-02-28T06:50:05;3.45;;;2.70;;
15482;SDS011;7843;50.330;7.312;2023-02-28T06:52:32;2.83;;;2.30;;
15482;SDS011;7843;50.330;7.312;2023-02-28T06:55:02;3.63;;;2.38;;
15482;SDS011;7843;50.330;7.312;2023-02-28T06:57:30;1.90;;;1.70;;
15482;SDS011;7843;50.330;7.312;2023-02-28T06:59:59;4.05;;;2.00;;
15482;SDS011;7843;50.330;7.312;2023-02-28T07:02:26;2.47;;;1.70;;
15482;SDS011;7843;50.330;7.312;2023-02-28T07:04:53;2.20;;;1.95;;
15482;SDS011;7843;50.330;7.312;2023-02-28T07:07:20;2.67;;;1.90;;
15482;SDS011;7843;50.330;7.312;2023-02-28T07:09:47;6.25;;;2.20;;
15482;SDS011;7843;50.330;7.312;2023-02-28T07:12:14;1.95;;;1.67;;
15482;SDS011;7843;50.330;7.312;2023-02-28T07:14:40;4.15;;;2.83;;
15482;SDS011;7843;50.330;7.312;2023-02-28T07:17:07;4.03;;;2.85;;
15482;SDS011;7843;50.330;7.312;2023-02-28T07:19:37;4.55;;;2.50;;
15482;SDS011;7843;50.330;7.312;2023-02-28T07:22:04;3.75;;;3.13;;
15482;SDS011;7843;50.330;7.312;2023-02-28T07:24:31;3.65;;;2.55;;
15482;SDS011;7843;50.330;7.312;2023-02-28T07:26:58;4.25;;;2.70;;
15482;SDS011;7843;50.330;7.312;2023-02-28T07:29:25;5.30;;;2.20;;
15482;SDS011;7843;50.330;7.312;2023-02-28T07:31:52;2.75;;;2.28;;
15482;SDS011;7843;50.330;7.312;2023-02-28T07:34:19;3.90;;;2.30;;
15482;SDS011;7843;50.330;7.312;2023-02-28T07:36:46;2.95;;;1.95;;
15482;SDS011;7843;50.330;7.312;2023-02-28T07:39:13;2.92;;;1.92;;
15482;SDS011;7843;50.330;7.312;2023-02-28T07:41:40;2.33;;;2.00;;
15482;SDS011;7843;50.330;7.312;2023-02-28T07:44:10;4.07;;;1.80;;
15482;SDS011;7843;50.330;7.312;2023-02-28T07:46:37;4.75;;;2.17;;
15482;SDS011;7843;50.330;7.312;2023-02-28T07:49:04;7.50;;;2.03;;
15482;SDS011;7843;50.330;7.312;2023-02-28T07:51:31;2.42;;;2.03;;
15482;SDS011;7843;50.330;7.312;2023-02-28T07:53:58;4.38;;;1.98;;
15482;SDS011;7843;50.330;7.312;2023-02-28T07:56:25;4.22;;;2.42;;
15482;SDS011;7843;50.330;7.312;2023-02-28T07:58:52;2.75;;;2.00;;
15482;SDS011;7843;50.330;7.312;2023-02-28T08:01:19;3.13;;;1.73;;
15482;SDS011;7843;50.330;7.312;2023-02-28T08:03:46;2.80;;;1.70;;
15482;SDS011;7843;50.330;7.312;2023-02-28T08:06:20;2.38;;;1.67;;
15482;SDS011;7843;50.330;7.312;2023-02-28T08:08:48;2.33;;;1.80;;
15482;SDS011;7843;50.330;7.312;2023-02-28T08:11:16;2.53;;;1.80;;
15482;SDS011;7843;50.330;7.312;2023-02-28T08:13:45;6.22;;;2.50;;
15482;SDS011;7843;50.330;7.312;2023-02-28T08:16:12;3.15;;;2.13;;
15482;SDS011;7843;50.330;7.312;2023-02-28T08:18:48;2.53;;;1.80;;
15482;SDS011;7843;50.330;7.312;2023-02-28T08:21:16;3.00;;;2.05;;
15482;SDS011;7843;50.330;7.312;2023-02-28T08:23:43;3.47;;;1.80;;
15482;SDS011;7843;50.330;7.312;2023-02-28T08:26:12;2.58;;;1.83;;
15482;SDS011;7843;50.330;7.312;2023-02-28T08:28:39;4.00;;;2.20;;
15482;SDS011;7843;50.330;7.312;2023-02-28T08:31:09;5.00;;;1.98;;
15482;SDS011;7843;50.330;7.312;2023-02-28T08:33:37;3.58;;;2.05;;
15482;SDS011;7843;50.330;7.312;2023-02-28T08:36:05;3.80;;;2.40;;
15482;SDS011;7843;50.330;7.312;2023-02-28T08:38:33;3.15;;;2.10;;
15482;SDS011;7843;50.330;7.312;2023-02-28T08:41:00;4.00;;;1.90;;
15482;SDS011;7843;50.330;7.312;2023-02-28T08:43:28;3.95;;;2.10;;
15482;SDS011;7843;50.330;7.312;2023-02-28T08:45:55;3.70;;;2.17;;
15482;SDS011;7843;50.330;7.312;2023-02-28T08:48:28;3.42;;;2.00;;
15482;SDS011;7843;50.330;7.312;2023-02-28T08:51:00;5.30;;;2.03;;
15482;SDS011;7843;50.330;7.312;2023-02-28T08:53:33;7.18;;;2.67;;
15482;SDS011;7843;50.330;7.312;2023-02-28T08:56:02;2.60;;;1.90;;
15482;SDS011;7843;50.330;7.312;2023-02-28T08:58:34;4.70;;;1.95;;
15482;SDS011;7843;50.330;7.312;2023-02-28T09:01:07;2.63;;;1.73;;
15482;SDS011;7843;50.330;7.312;2023-02-28T09:03:38;4.85;;;2.25;;
15482;SDS011;7843;50.330;7.312;2023-02-28T09:06:05;3.05;;;2.03;;
15482;SDS011;7843;50.330;7.312;2023-02-28T09:08:31;3.55;;;2.05;;
15482;SDS011;7843;50.330;7.312;2023-02-28T09:10:58;2.72;;;1.80;;
15482;SDS011;7843;50.330;7.312;2023-02-28T09:13:26;2.08;;;1.80;;
15482;SDS011;7843;50.330;7.312;2023-02-28T09:15:54;2.17;;;1.85;;
15482;SDS011;7843;50.330;7.312;2023-02-28T09:18:23;2.60;;;1.90;;
15482;SDS011;7843;50.330;7.312;2023-02-28T09:20:49;2.50;;;2.00;;
15482;SDS011;7843;50.330;7.312;2023-02-28T09:23:16;8.37;;;1.50;;
15482;SDS011;7843;50.330;7.312;2023-02-28T09:25:47;3.70;;;2.17;;
15482;SDS011;7843;50.330;7.312;2023-02-28T09:28:15;2.78;;;1.98;;
15482;SDS011;7843;50.330;7.312;2023-02-28T09:30:46;4.30;;;2.13;;
15482;SDS011;7843;50.330;7.312;2023-02-28T09:33:15;5.97;;;2.00;;
15482;SDS011;7843;50.330;7.312;2023-02-28T09:35:43;7.22;;;1.65;;
15482;SDS011;7843;50.330;7.312;2023-02-28T09:38:09;3.15;;;1.95;;
15482;SDS011;7843;50.330;7.312;2023-02-28T09:40:37;2.10;;;1.70;;
15482;SDS011;7843;50.330;7.312;2023-02-28T09:43:18;4.00;;;2.00;;
15482;SDS011;7843;50.330;7.312;2023-02-28T09:46:09;3.05;;;1.83;;
15482;SDS011;7843;50.330;7.312;2023-02-28T09:48:53;4.40;;;1.98;;
15482;SDS011;7843;50.330;7.312;2023-02-28T09:51:28;3.30;;;2.20;;
15482;SDS011;7843;50.330;7.312;2023-02-28T09:54:04;2.60;;;2.00;;
15482;SDS011;7843;50.330;7.312;2023-02-28T09:56:36;3.22;;;2.00;;
15482;SDS011;7843;50.330;7.312;2023-02-28T10:01:43;1.67;;;1.47;;
15482;SDS011;7843;50.330;7.312;2023-02-28T10:04:36;4.43;;;2.10;;
15482;SDS011;7843;50.330;7.312;2023-02-28T10:10:29;1.88;;;1.67;;
15482;SDS011;7843;50.330;7.312;2023-02-28T10:13:05;1.88;;;1.45;;
15482;SDS011;7843;50.330;7.312;2023-02-28T10:15:39;3.70;;;2.10;;
15482;SDS011;7843;50.330;7.312;2023-02-28T10:18:10;2.30;;;2.00;;
15482;SDS011;7843;50.330;7.312;2023-02-28T10:20:41;3.75;;;1.83;;
15482;SDS011;7843;50.330;7.312;2023-02-28T10:25:43;2.88;;;1.70;;
15482;SDS011;7843;50.330;7.312;2023-02-28T10:28:14;2.53;;;1.83;;
15482;SDS011;7843;50.330;7.312;2023-02-28T10:30:47;1.63;;;1.53;;
15482;SDS011;7843;50.330;7.312;2023-02-28T10:33:21;1.83;;;1.70;;
15482;SDS011;7843;50.330;7.312;2023-02-28T10:36:00;2.17;;;1.70;;
15482;SDS011;7843;50.330;7.312;2023-02-28T10:38:35;2.42;;;1.60;;
15482;SDS011;7843;50.330;7.312;2023-02-28T10:41:05;1.65;;;1.52;;
15482;SDS011;7843;50.330;7.312;2023-02-28T10:43:34;3.00;;;1.70;;
15482;SDS011;7843;50.330;7.312;2023-02-28T10:46:03;3.75;;;1.63;;
15482;SDS011;7843;50.330;7.312;2023-02-28T10:48:39;2.88;;;1.63;;
15482;SDS011;7843;50.330;7.312;2023-02-28T10:51:12;3.35;;;1.65;;
15482;SDS011;7843;50.330;7.312;2023-02-28T10:53:50;2.35;;;1.50;;
15482;SDS011;7843;50.330;7.312;2023-02-28T10:56:28;6.00;;;1.90;;
15482;SDS011;7843;50.330;7.312;2023-02-28T11:01:38;3.08;;;1.98;;
15482;SDS011;7843;50.330;7.312;2023-02-28T11:04:16;2.20;;;1.50;;
15482;SDS011;7843;50.330;7.312;2023-02-28T11:07:03;3.95;;;1.75;;
15482;SDS011;7843;50.330;7.312;2023-02-28T11:12:06;2.38;;;1.75;;
15482;SDS011;7843;50.330;7.312;2023-02-28T11:14:52;2.07;;;1.77;;
15482;SDS011;7843;50.330;7.312;2023-02-28T11:17:26;2.47;;;2.00;;
15482;SDS011;7843;50.330;7.312;2023-02-28T11:19:57;2.42;;;1.50;;
15482;SDS011;7843;50.330;7.312;2023-02-28T11:22:31;3.97;;;1.90;;
15482;SDS011;7843;50.330;7.312;2023-02-28T11:25:03;2.85;;;1.80;;
15482;SDS011;7843;50.330;7.312;2023-02-28T11:27:44;2.10;;;1.60;;
15482;SDS011;7843;50.330;7.312;2023-02-28T11:30:26;4.30;;;1.60;;
15482;SDS011;7843;50.330;7.312;2023-02-28T11:33:00;2.08;;;1.70;;
15482;SDS011;7843;50.330;7.312;2023-02-28T11:35:44;2.13;;;1.60;;
15482;SDS011;7843;50.330;7.312;2023-02-28T11:38:13;1.95;;;1.50;;
15482;SDS011;7843;50.330;7.312;2023-02-28T11:49:11;3.43;;;1.80;;
15482;SDS011;7843;50.330;7.312;2023-02-28T11:52:06;4.03;;;1.60;;
15482;SDS011;7843;50.330;7.312;2023-02-28T11:57:32;6.07;;;3.47;;
15482;SDS011;7843;50.330;7.312;2023-02-28T12:06:00;2.60;;;2.10;;
15482;SDS011;7843;50.330;7.312;2023-02-28T12:11:43;2.15;;;1.65;;
15482;SDS011;7843;50.330;7.312;2023-02-28T12:17:14;2.27;;;1.70;;
15482;SDS011;7843;50.330;7.312;2023-02-28T12:28:41;3.00;;;2.08;;
15482;SDS011;7843;50.330;7.312;2023-02-28T12:31:17;5.18;;;2.80;;
15482;SDS011;7843;50.330;7.312;2023-02-28T12:33:53;3.33;;;2.28;;
15482;SDS011;7843;50.330;7.312;2023-02-28T12:36:26;3.00;;;1.98;;
15482;SDS011;7843;50.330;7.312;2023-02-28T12:41:38;3.92;;;2.65;;
15482;SDS011;7843;50.330;7.312;2023-02-28T12:44:11;3.20;;;1.88;;
15482;SDS011;7843;50.330;7.312;2023-02-28T12:46:53;4.93;;;2.13;;
15482;SDS011;7843;50.330;7.312;2023-02-28T12:49:27;2.53;;;1.77;;
15482;SDS011;7843;50.330;7.312;2023-02-28T12:51:59;4.93;;;2.80;;
15482;SDS011;7843;50.330;7.312;2023-02-28T12:54:44;3.00;;;2.03;;
15482;SDS011;7843;50.330;7.312;2023-02-28T13:11:32;2.20;;;1.55;;
15482;SDS011;7843;50.330;7.312;2023-02-28T13:14:13;1.98;;;1.38;;
15482;SDS011;7843;50.330;7.312;2023-02-28T13:19:59;2.47;;;1.45;;
15482;SDS011;7843;50.330;7.312;2023-02-28T13:24:52;2.80;;;1.85;;
15482;SDS011;7843;50.330;7.312;2023-02-28T13:27:24;2.10;;;1.55;;
15482;SDS011;7843;50.330;7.312;2023-02-28T13:29:59;3.50;;;1.67;;
15482;SDS011;7843;50.330;7.312;2023-02-28T13:39:55;1.95;;;1.20;;
15482;SDS011;7843;50.330;7.312;2023-02-28T13:42:59;3.92;;;1.80;;
15482;SDS011;7843;50.330;7.312;2023-02-28T13:47:54;2.58;;;1.50;;
15482;SDS011;7843;50.330;7.312;2023-02-28T13:52:58;2.95;;;1.65;;
15482;SDS011;7843;50.330;7.312;2023-02-28T13:59:04;3.55;;;1.88;;
15482;SDS011;7843;50.330;7.312;2023-02-28T14:04:25;2.88;;;1.65;;
15482;SDS011;7843;50.330;7.312;2023-02-28T14:07:59;2.28;;;1.50;;
15482;SDS011;7843;50.330;7.312;2023-02-28T14:12:56;3.45;;;1.90;;
15482;SDS011;7843;50.330;7.312;2023-02-28T14:15:26;1.95;;;1.40;;
15482;SDS011;7843;50.330;7.312;2023-02-28T14:18:03;3.42;;;1.63;;
15482;SDS011;7843;50.330;7.312;2023-02-28T14:20:39;4.40;;;1.70;;
15482;SDS011;7843;50.330;7.312;2023-02-28T14:23:24;2.47;;;1.50;;
15482;SDS011;7843;50.330;7.312;2023-02-28T14:25:55;2.28;;;1.60;;
15482;SDS011;7843;50.330;7.312;2023-02-28T14:31:18;3.60;;;1.80;;
15482;SDS011;7843;50.330;7.312;2023-02-28T14:33:57;3.37;;;1.90;;
15482;SDS011;7843;50.330;7.312;2023-02-28T14:36:44;3.22;;;1.73;;
15482;SDS011;7843;50.330;7.312;2023-02-28T14:39:13;4.25;;;1.83;;
15482;SDS011;7843;50.330;7.312;2023-02-28T14:41:42;3.17;;;1.70;;
15482;SDS011;7843;50.330;7.312;2023-02-28T14:44:14;4.73;;;2.70;;
15482;SDS011;7843;50.330;7.312;2023-02-28T14:46:44;2.72;;;1.85;;
15482;SDS011;7843;50.330;7.312;2023-02-28T14:49:20;2.70;;;1.80;;
15482;SDS011;7843;50.330;7.312;2023-02-28T14:52:12;3.78;;;1.90;;
15482;SDS011;7843;50.330;7.312;2023-02-28T14:54:41;3.20;;;2.03;;
15482;SDS011;7843;50.330;7.312;2023-02-28T14:57:29;2.65;;;1.80;;
15482;SDS011;7843;50.330;7.312;2023-02-28T15:00:02;3.83;;;1.67;;
15482;SDS011;7843;50.330;7.312;2023-02-28T15:02:50;2.97;;;2.07;;
15482;SDS011;7843;50.330;7.312;2023-02-28T15:07:44;2.60;;;1.90;;
15482;SDS011;7843;50.330;7.312;2023-02-28T15:16:01;2.95;;;2.10;;
15482;SDS011;7843;50.330;7.312;2023-02-28T15:20:58;4.80;;;2.40;;
15482;SDS011;7843;50.330;7.312;2023-02-28T15:23:29;4.18;;;2.28;;
15482;SDS011;7843;50.330;7.312;2023-02-28T15:25:57;2.92;;;2.30;;
15482;SDS011;7843;50.330;7.312;2023-02-28T15:28:24;2.88;;;1.98;;
15482;SDS011;7843;50.330;7.312;2023-02-28T15:30:53;3.50;;;2.40;;
15482;SDS011;7843;50.330;7.312;2023-02-28T15:33:23;3.08;;;1.88;;
15482;SDS011;7843;50.330;7.312;2023-02-28T15:36:02;4.70;;;3.00;;
15482;SDS011;7843;50.330;7.312;2023-02-28T15:38:37;7.20;;;3.67;;
15482;SDS011;7843;50.330;7.312;2023-02-28T15:41:04;4.55;;;2.38;;
15482;SDS011;7843;50.330;7.312;2023-02-28T15:43:35;3.88;;;2.55;;
15482;SDS011;7843;50.330;7.312;2023-02-28T15:46:07;3.42;;;2.67;;
15482;SDS011;7843;50.330;7.312;2023-02-28T15:48:53;4.07;;;2.78;;
15482;SDS011;7843;50.330;7.312;2023-02-28T15:51:36;4.03;;;2.55;;
15482;SDS011;7843;50.330;7.312;2023-02-28T15:54:05;2.97;;;2.28;;
15482;SDS011;7843;50.330;7.312;2023-02-28T15:56:53;4.95;;;2.60;;
15482;SDS011;7843;50.330;7.312;2023-02-28T15:59:31;3.38;;;2.53;;
15482;SDS011;7843;50.330;7.312;2023-02-28T16:02:02;5.25;;;2.53;;
15482;SDS011;7843;50.330;7.312;2023-02-28T16:04:54;4.88;;;2.50;;
15482;SDS011;7843;50.330;7.312;2023-02-28T16:07:24;6.45;;;2.75;;
15482;SDS011;7843;50.330;7.312;2023-02-28T16:09:51;5.93;;;3.45;;
15482;SDS011;7843;50.330;7.312;2023-02-28T16:12:19;4.90;;;2.55;;
15482;SDS011;7843;50.330;7.312;2023-02-28T16:14:51;3.83;;;2.35;;
15482;SDS011;7843;50.330;7.312;2023-02-28T16:17:23;2.80;;;2.00;;
15482;SDS011;7843;50.330;7.312;2023-02-28T16:19:53;4.15;;;2.90;;
15482;SDS011;7843;50.330;7.312;2023-02-28T16:22:21;7.97;;;4.93;;
15482;SDS011;7843;50.330;7.312;2023-02-28T16:24:48;6.78;;;4.35;;
15482;SDS011;7843;50.330;7.312;2023-02-28T16:27:16;7.70;;;5.57;;
15482;SDS011;7843;50.330;7.312;2023-02-28T16:29:44;15.25;;;8.40;;
15482;SDS011;7843;50.330;7.312;2023-02-28T16:32:12;9.00;;;4.93;;
15482;SDS011;7843;50.330;7.312;2023-02-28T16:34:42;16.35;;;6.65;;
15482;SDS011;7843;50.330;7.312;2023-02-28T16:37:11;6.18;;;3.85;;
15482;SDS011;7843;50.330;7.312;2023-02-28T16:39:42;4.60;;;3.30;;
15482;SDS011;7843;50.330;7.312;2023-02-28T16:42:10;5.40;;;3.17;;
15482;SDS011;7843;50.330;7.312;2023-02-28T16:44:57;4.07;;;2.90;;
15482;SDS011;7843;50.330;7.312;2023-02-28T16:47:24;4.43;;;2.90;;
15482;SDS011;7843;50.330;7.312;2023-02-28T16:49:52;4.93;;;3.25;;
15482;SDS011;7843;50.330;7.312;2023-02-28T16:52:19;7.25;;;3.10;;
15482;SDS011;7843;50.330;7.312;2023-02-28T16:54:46;4.30;;;3.20;;
15482;SDS011;7843;50.330;7.312;2023-02-28T16:57:18;5.35;;;3.65;;
15482;SDS011;7843;50.330;7.312;2023-02-28T16:59:49;7.30;;;3.85;;
15482;SDS011;7843;50.330;7.312;2023-02-28T17:02:19;7.95;;;4.60;;
15482;SDS011;7843;50.330;7.312;2023-02-28T17:04:46;10.00;;;5.43;;
15482;SDS011;7843;50.330;7.312;2023-02-28T17:07:14;6.20;;;4.13;;
15482;SDS011;7843;50.330;7.312;2023-02-28T17:09:42;4.20;;;3.25;;
15482;SDS011;7843;50.330;7.312;2023-02-28T17:12:11;6.57;;;3.88;;
15482;SDS011;7843;50.330;7.312;2023-02-28T17:14:38;4.03;;;3.00;;
15482;SDS011;7843;50.330;7.312;2023-02-28T17:17:05;5.22;;;3.15;;
15482;SDS011;7843;50.330;7.312;2023-02-28T17:19:32;4.55;;;3.20;;
15482;SDS011;7843;50.330;7.312;2023-02-28T17:22:00;5.63;;;4.00;;
15482;SDS011;7843;50.330;7.312;2023-02-28T17:24:26;9.80;;;4.55;;
15482;SDS011;7843;50.330;7.312;2023-02-28T17:26:56;8.57;;;4.10;;
15482;SDS011;7843;50.330;7.312;2023-02-28T17:29:23;5.45;;;3.70;;
15482;SDS011;7843;50.330;7.312;2023-02-28T17:31:50;6.33;;;4.30;;
15482;SDS011;7843;50.330;7.312;2023-02-28T17:34:17;6.70;;;4.68;;
15482;SDS011;7843;50.330;7.312;2023-02-28T17:36:48;8.68;;;4.63;;
15482;SDS011;7843;50.330;7.312;2023-02-28T17:39:16;8.13;;;5.22;;
15482;SDS011;7843;50.330;7.312;2023-02-28T17:41:50;9.00;;;5.68;;
15482;SDS011;7843;50.330;7.312;2023-02-28T17:44:18;8.07;;;5.37;;
15482;SDS011;7843;50.330;7.312;2023-02-28T17:46:45;8.07;;;4.75;;